sensor_id;sensor_type;location;lat;lon;timestamp;temperature;humidity
11989;DHT22;6054;50.966;7.094;2023-05-16T00:01:56;21.50;46.40
11989;DHT22;6054;50.966;7.094;2023-05-16T00:04:24;21.60;47.70
11989;DHT22;6054;50.966;7.094;2023-05-16T00:06:51;21.30;47.70
11989;DHT22;6054;50.966;7.094;2023-05-16T00:09:18;21.30;48.40
11989;DHT22;6054;50.966;7.094;2023-05-16T00:11:46;21.50;48.50
11989;DHT22;6054;50.966;7.094;2023-05-16T00:14:14;21.20;49.00
11989;DHT22;6054;50.966;7.094;2023-05-16T00:16:41;21.20;49.30
11989;DHT22;6054;50.966;7.094;2023-05-16T00:19:08;21.20;49.30
11989;DHT22;6054;50.966;7.094;2023-05-16T00:21:34;21.20;49.70
11989;DHT22;6054;50.966;7.094;2023-05-16T00:24:01;21.00;49.50
11989;DHT22;6054;50.966;7.094;2023-05-16T00:26:28;21.00;50.00
11989;DHT22;6054;50.966;7.094;2023-05-16T00:28:56;20.90;50.50
11989;DHT22;6054;50.966;7.094;2023-05-16T00:31:23;20.80;50.70
11989;DHT22;6054;50.966;7.094;2023-05-16T00:33:50;21.00;51.10
11989;DHT22;6054;50.966;7.094;2023-05-16T00:36:16;20.70;51.10
11989;DHT22;6054;50.966;7.094;2023-05-16T00:38:43;20.60;51.30
11989;DHT22;6054;50.966;7.094;2023-05-16T00:41:10;20.60;52.00
11989;DHT22;6054;50.966;7.094;2023-05-16T00:43:37;20.50;52.10
11989;DHT22;6054;50.966;7.094;2023-05-16T00:46:05;20.40;52.60
11989;DHT22;6054;50.966;7.094;2023-05-16T00:48:32;20.40;53.00
11989;DHT22;6054;50.966;7.094;2023-05-16T00:51:00;20.30;53.00
11989;DHT22;6054;50.966;7.094;2023-05-16T00:53:27;20.20;53.60
11989;DHT22;6054;50.966;7.094;2023-05-16T00:55:54;20.10;54.20
11989;DHT22;6054;50.966;7.094;2023-05-16T00:58:22;20.00;54.20
11989;DHT22;6054;50.966;7.094;2023-05-16T01:00:50;19.90;54.20
11989;DHT22;6054;50.966;7.094;2023-05-16T01:03:18;19.80;54.20
11989;DHT22;6054;50.966;7.094;2023-05-16T01:05:45;19.80;54.40
11989;DHT22;6054;50.966;7.094;2023-05-16T01:08:12;19.70;54.60
11989;DHT22;6054;50.966;7.094;2023-05-16T01:10:45;19.70;54.90
11989;DHT22;6054;50.966;7.094;2023-05-16T01:13:21;19.90;56.50
11989;DHT22;6054;50.966;7.094;2023-05-16T01:15:55;19.80;56.00
11989;DHT22;6054;50.966;7.094;2023-05-16T01:18:32;19.60;55.70
11989;DHT22;6054;50.966;7.094;2023-05-16T01:21:05;19.50;55.70
11989;DHT22;6054;50.966;7.094;2023-05-16T01:23:43;19.50;55.80
11989;DHT22;6054;50.966;7.094;2023-05-16T01:26:18;19.40;55.50
11989;DHT22;6054;50.966;7.094;2023-05-16T01:28:47;19.30;55.30
11989;DHT22;6054;50.966;7.094;2023-05-16T01:31:14;19.30;55.60
11989;DHT22;6054;50.966;7.094;2023-05-16T01:33:41;19.20;54.70
11989;DHT22;6054;50.966;7.094;2023-05-16T01:36:14;19.30;55.70
11989;DHT22;6054;50.966;7.094;2023-05-16T01:38:48;19.20;55.90
11989;DHT22;6054;50.966;7.094;2023-05-16T01:41:22;19.00;55.90
11989;DHT22;6054;50.966;7.094;2023-05-16T01:43:56;19.00;55.50
11989;DHT22;6054;50.966;7.094;2023-05-16T01:46:26;19.00;56.00
11989;DHT22;6054;50.966;7.094;2023-05-16T01:49:03;18.90;56.00
11989;DHT22;6054;50.966;7.094;2023-05-16T01:51:32;18.90;56.00
11989;DHT22;6054;50.966;7.094;2023-05-16T01:54:02;19.00;56.10
11989;DHT22;6054;50.966;7.094;2023-05-16T01:56:32;18.90;56.40
11989;DHT22;6054;50.966;7.094;2023-05-16T01:59:00;18.90;56.90
11989;DHT22;6054;50.966;7.094;2023-05-16T02:01:29;18.90;56.30
11989;DHT22;6054;50.966;7.094;2023-05-16T02:03:56;18.80;56.30
11989;DHT22;6054;50.966;7.094;2023-05-16T02:06:23;18.70;55.70
11989;DHT22;6054;50.966;7.094;2023-05-16T02:08:50;18.70;56.40
11989;DHT22;6054;50.966;7.094;2023-05-16T02:11:18;18.70;56.50
11989;DHT22;6054;50.966;7.094;2023-05-16T02:13:46;18.70;56.40
11989;DHT22;6054;50.966;7.094;2023-05-16T02:16:13;18.60;55.90
11989;DHT22;6054;50.966;7.094;2023-05-16T02:18:40;18.50;55.90
11989;DHT22;6054;50.966;7.094;2023-05-16T02:21:07;18.40;56.30
11989;DHT22;6054;50.966;7.094;2023-05-16T02:23:33;18.40;56.30
11989;DHT22;6054;50.966;7.094;2023-05-16T02:26:00;18.40;56.10
11989;DHT22;6054;50.966;7.094;2023-05-16T02:28:27;18.40;56.30
11989;DHT22;6054;50.966;7.094;2023-05-16T02:30:59;18.30;56.20
11989;DHT22;6054;50.966;7.094;2023-05-16T02:33:28;18.30;56.50
11989;DHT22;6054;50.966;7.094;2023-05-16T02:35:55;18.50;55.70
11989;DHT22;6054;50.966;7.094;2023-05-16T02:38:22;18.30;54.40
11989;DHT22;6054;50.966;7.094;2023-05-16T02:40:49;18.40;54.60
11989;DHT22;6054;50.966;7.094;2023-05-16T02:43:16;18.30;55.80
11989;DHT22;6054;50.966;7.094;2023-05-16T02:45:43;18.30;55.50
11989;DHT22;6054;50.966;7.094;2023-05-16T02:48:11;18.00;55.00
11989;DHT22;6054;50.966;7.094;2023-05-16T02:50:38;18.00;55.40
11989;DHT22;6054;50.966;7.094;2023-05-16T02:53:05;18.00;55.50
11989;DHT22;6054;50.966;7.094;2023-05-16T02:55:32;18.00;55.40
11989;DHT22;6054;50.966;7.094;2023-05-16T02:57:59;18.10;55.00
11989;DHT22;6054;50.966;7.094;2023-05-16T03:00:25;17.90;54.70
11989;DHT22;6054;50.966;7.094;2023-05-16T03:02:52;17.90;54.60
11989;DHT22;6054;50.966;7.094;2023-05-16T03:05:20;18.00;55.60
11989;DHT22;6054;50.966;7.094;2023-05-16T03:07:47;17.80;55.50
11989;DHT22;6054;50.966;7.094;2023-05-16T03:10:14;17.70;55.10
11989;DHT22;6054;50.966;7.094;2023-05-16T03:12:40;17.80;55.50
11989;DHT22;6054;50.966;7.094;2023-05-16T03:15:08;17.70;55.50
11989;DHT22;6054;50.966;7.094;2023-05-16T03:17:35;17.70;56.00
11989;DHT22;6054;50.966;7.094;2023-05-16T03:20:02;17.70;54.80
11989;DHT22;6054;50.966;7.094;2023-05-16T03:22:31;17.70;56.00
11989;DHT22;6054;50.966;7.094;2023-05-16T03:24:57;17.70;55.50
11989;DHT22;6054;50.966;7.094;2023-05-16T03:27:25;17.60;55.40
11989;DHT22;6054;50.966;7.094;2023-05-16T03:29:52;17.60;55.70
11989;DHT22;6054;50.966;7.094;2023-05-16T03:32:19;17.70;55.80
11989;DHT22;6054;50.966;7.094;2023-05-16T03:34:46;17.70;55.70
11989;DHT22;6054;50.966;7.094;2023-05-16T03:37:13;17.60;56.00
11989;DHT22;6054;50.966;7.094;2023-05-16T03:39:42;17.70;56.10
11989;DHT22;6054;50.966;7.094;2023-05-16T03:42:09;17.90;55.50
11989;DHT22;6054;50.966;7.094;2023-05-16T03:44:35;17.60;55.40
11989;DHT22;6054;50.966;7.094;2023-05-16T03:47:02;17.60;55.80
11989;DHT22;6054;50.966;7.094;2023-05-16T03:49:29;17.70;56.40
11989;DHT22;6054;50.966;7.094;2023-05-16T03:51:56;17.70;55.90
11989;DHT22;6054;50.966;7.094;2023-05-16T03:54:23;17.70;56.00
11989;DHT22;6054;50.966;7.094;2023-05-16T03:56:51;17.70;56.00
11989;DHT22;6054;50.966;7.094;2023-05-16T03:59:18;17.70;55.80
11989;DHT22;6054;50.966;7.094;2023-05-16T04:01:45;17.90;56.20
11989;DHT22;6054;50.966;7.094;2023-05-16T04:04:12;18.00;56.70
11989;DHT22;6054;50.966;7.094;2023-05-16T04:06:39;17.70;56.10
11989;DHT22;6054;50.966;7.094;2023-05-16T04:09:06;17.70;55.50
11989;DHT22;6054;50.966;7.094;2023-05-16T04:11:32;17.70;55.20
11989;DHT22;6054;50.966;7.094;2023-05-16T04:14:01;17.60;55.80
11989;DHT22;6054;50.966;7.094;2023-05-16T04:16:27;17.90;55.80
11989;DHT22;6054;50.966;7.094;2023-05-16T04:18:54;17.70;55.10
11989;DHT22;6054;50.966;7.094;2023-05-16T04:21:21;17.60;55.60
11989;DHT22;6054;50.966;7.094;2023-05-16T04:23:48;17.80;55.30
11989;DHT22;6054;50.966;7.094;2023-05-16T04:26:15;17.60;54.50
11989;DHT22;6054;50.966;7.094;2023-05-16T04:28:42;17.60;54.80
11989;DHT22;6054;50.966;7.094;2023-05-16T04:31:12;17.60;54.80
11989;DHT22;6054;50.966;7.094;2023-05-16T04:33:39;17.60;55.00
11989;DHT22;6054;50.966;7.094;2023-05-16T04:36:06;17.50;54.80
11989;DHT22;6054;50.966;7.094;2023-05-16T04:38:33;17.60;55.70
11989;DHT22;6054;50.966;7.094;2023-05-16T04:41:00;17.50;55.50
11989;DHT22;6054;50.966;7.094;2023-05-16T04:43:28;17.50;55.10
11989;DHT22;6054;50.966;7.094;2023-05-16T04:45:55;17.50;55.30
11989;DHT22;6054;50.966;7.094;2023-05-16T04:48:24;17.70;55.60
11989;DHT22;6054;50.966;7.094;2023-05-16T04:50:51;17.40;54.80
11989;DHT22;6054;50.966;7.094;2023-05-16T04:53:18;17.40;54.40
11989;DHT22;6054;50.966;7.094;2023-05-16T04:55:45;17.30;54.50
11989;DHT22;6054;50.966;7.094;2023-05-16T04:58:11;17.30;54.70
11989;DHT22;6054;50.966;7.094;2023-05-16T05:00:38;17.30;55.00
11989;DHT22;6054;50.966;7.094;2023-05-16T05:03:05;17.30;55.00
11989;DHT22;6054;50.966;7.094;2023-05-16T05:05:33;17.30;54.80
11989;DHT22;6054;50.966;7.094;2023-05-16T05:08:00;17.30;54.80
11989;DHT22;6054;50.966;7.094;2023-05-16T05:10:27;17.30;54.30
11989;DHT22;6054;50.966;7.094;2023-05-16T05:12:55;17.30;54.90
11989;DHT22;6054;50.966;7.094;2023-05-16T05:15:22;17.20;54.60
11989;DHT22;6054;50.966;7.094;2023-05-16T05:17:49;17.20;53.70
11989;DHT22;6054;50.966;7.094;2023-05-16T05:20:16;17.20;53.70
11989;DHT22;6054;50.966;7.094;2023-05-16T05:22:45;17.10;54.30
11989;DHT22;6054;50.966;7.094;2023-05-16T05:25:11;17.30;53.30
11989;DHT22;6054;50.966;7.094;2023-05-16T05:27:38;17.10;53.70
11989;DHT22;6054;50.966;7.094;2023-05-16T05:30:06;17.20;53.70
11989;DHT22;6054;50.966;7.094;2023-05-16T05:32:33;17.10;55.30
11989;DHT22;6054;50.966;7.094;2023-05-16T05:35:00;17.10;54.20
11989;DHT22;6054;50.966;7.094;2023-05-16T05:37:27;17.10;54.10
11989;DHT22;6054;50.966;7.094;2023-05-16T05:39:55;17.10;53.70
11989;DHT22;6054;50.966;7.094;2023-05-16T05:42:23;17.10;52.30
11989;DHT22;6054;50.966;7.094;2023-05-16T05:44:49;17.30;53.30
11989;DHT22;6054;50.966;7.094;2023-05-16T05:47:16;17.10;53.80
11989;DHT22;6054;50.966;7.094;2023-05-16T05:49:43;17.20;52.10
11989;DHT22;6054;50.966;7.094;2023-05-16T05:52:10;17.10;53.90
11989;DHT22;6054;50.966;7.094;2023-05-16T05:54:37;17.50;53.80
11989;DHT22;6054;50.966;7.094;2023-05-16T05:57:06;17.20;54.50
11989;DHT22;6054;50.966;7.094;2023-05-16T05:59:32;17.20;53.40
11989;DHT22;6054;50.966;7.094;2023-05-16T06:01:59;17.20;54.30
11989;DHT22;6054;50.966;7.094;2023-05-16T06:04:26;17.30;55.30
11989;DHT22;6054;50.966;7.094;2023-05-16T06:06:56;17.60;55.70
11989;DHT22;6054;50.966;7.094;2023-05-16T06:09:25;17.40;55.30
11989;DHT22;6054;50.966;7.094;2023-05-16T06:11:52;17.50;55.70
11989;DHT22;6054;50.966;7.094;2023-05-16T06:14:20;17.60;54.50
11989;DHT22;6054;50.966;7.094;2023-05-16T06:16:46;17.60;54.80
11989;DHT22;6054;50.966;7.094;2023-05-16T06:19:13;17.70;54.20
11989;DHT22;6054;50.966;7.094;2023-05-16T06:21:40;17.70;54.10
11989;DHT22;6054;50.966;7.094;2023-05-16T06:24:08;17.70;53.90
11989;DHT22;6054;50.966;7.094;2023-05-16T06:26:36;17.80;54.20
11989;DHT22;6054;50.966;7.094;2023-05-16T06:29:03;17.60;53.50
11989;DHT22;6054;50.966;7.094;2023-05-16T06:31:31;17.60;53.20
11989;DHT22;6054;50.966;7.094;2023-05-16T06:33:58;17.60;53.60
11989;DHT22;6054;50.966;7.094;2023-05-16T06:36:24;17.80;53.90
11989;DHT22;6054;50.966;7.094;2023-05-16T06:38:51;17.60;53.50
11989;DHT22;6054;50.966;7.094;2023-05-16T06:41:18;17.70;52.80
11989;DHT22;6054;50.966;7.094;2023-05-16T06:43:45;17.70;52.70
11989;DHT22;6054;50.966;7.094;2023-05-16T06:46:16;18.00;52.40
11989;DHT22;6054;50.966;7.094;2023-05-16T06:48:45;17.80;52.60
11989;DHT22;6054;50.966;7.094;2023-05-16T06:51:16;17.80;51.80
11989;DHT22;6054;50.966;7.094;2023-05-16T06:53:43;18.00;53.10
11989;DHT22;6054;50.966;7.094;2023-05-16T06:56:10;17.90;52.40
11989;DHT22;6054;50.966;7.094;2023-05-16T06:58:37;17.90;52.80
11989;DHT22;6054;50.966;7.094;2023-05-16T07:01:03;18.00;51.80
11989;DHT22;6054;50.966;7.094;2023-05-16T07:03:30;18.10;52.10
11989;DHT22;6054;50.966;7.094;2023-05-16T07:05:58;18.10;51.90
11989;DHT22;6054;50.966;7.094;2023-05-16T07:08:25;18.20;51.70
11989;DHT22;6054;50.966;7.094;2023-05-16T07:10:52;18.40;51.10
11989;DHT22;6054;50.966;7.094;2023-05-16T07:13:19;18.30;51.10
11989;DHT22;6054;50.966;7.094;2023-05-16T07:15:45;18.30;50.60
11989;DHT22;6054;50.966;7.094;2023-05-16T07:18:12;18.40;49.70
11989;DHT22;6054;50.966;7.094;2023-05-16T07:20:39;18.30;49.70
11989;DHT22;6054;50.966;7.094;2023-05-16T07:23:07;18.30;49.80
11989;DHT22;6054;50.966;7.094;2023-05-16T07:25:34;18.30;49.50
11989;DHT22;6054;50.966;7.094;2023-05-16T07:28:01;18.50;49.80
11989;DHT22;6054;50.966;7.094;2023-05-16T07:30:28;18.20;49.10
11989;DHT22;6054;50.966;7.094;2023-05-16T07:32:54;18.20;49.40
11989;DHT22;6054;50.966;7.094;2023-05-16T07:35:21;18.20;49.60
11989;DHT22;6054;50.966;7.094;2023-05-16T07:37:48;18.20;49.20
11989;DHT22;6054;50.966;7.094;2023-05-16T07:40:16;18.20;49.40
11989;DHT22;6054;50.966;7.094;2023-05-16T07:42:45;18.30;49.30
11989;DHT22;6054;50.966;7.094;2023-05-16T07:45:12;18.20;48.20
11989;DHT22;6054;50.966;7.094;2023-05-16T07:47:38;18.20;47.90
11989;DHT22;6054;50.966;7.094;2023-05-16T07:50:06;18.20;48.40
11989;DHT22;6054;50.966;7.094;2023-05-16T07:52:33;18.30;47.90
11989;DHT22;6054;50.966;7.094;2023-05-16T07:54:59;18.30;47.60
11989;DHT22;6054;50.966;7.094;2023-05-16T07:57:28;18.30;48.30
11989;DHT22;6054;50.966;7.094;2023-05-16T07:59:55;18.40;48.20
11989;DHT22;6054;50.966;7.094;2023-05-16T08:02:22;18.50;47.60
11989;DHT22;6054;50.966;7.094;2023-05-16T08:04:50;18.60;47.60
11989;DHT22;6054;50.966;7.094;2023-05-16T08:07:17;18.70;45.90
11989;DHT22;6054;50.966;7.094;2023-05-16T08:09:44;19.00;45.30
11989;DHT22;6054;50.966;7.094;2023-05-16T08:12:10;18.80;45.20
11989;DHT22;6054;50.966;7.094;2023-05-16T08:14:39;18.80;44.10
11989;DHT22;6054;50.966;7.094;2023-05-16T08:17:06;18.80;43.30
11989;DHT22;6054;50.966;7.094;2023-05-16T08:19:33;18.80;43.70
11989;DHT22;6054;50.966;7.094;2023-05-16T08:22:00;18.90;44.20
11989;DHT22;6054;50.966;7.094;2023-05-16T08:24:28;19.00;44.10
11989;DHT22;6054;50.966;7.094;2023-05-16T08:26:54;19.10;43.20
11989;DHT22;6054;50.966;7.094;2023-05-16T08:29:21;19.20;42.80
11989;DHT22;6054;50.966;7.094;2023-05-16T08:31:49;19.30;42.60
11989;DHT22;6054;50.966;7.094;2023-05-16T08:34:16;19.30;43.30
11989;DHT22;6054;50.966;7.094;2023-05-16T08:36:43;19.50;43.60
11989;DHT22;6054;50.966;7.094;2023-05-16T08:39:10;19.60;43.80
11989;DHT22;6054;50.966;7.094;2023-05-16T08:41:38;20.00;43.70
11989;DHT22;6054;50.966;7.094;2023-05-16T08:44:05;19.90;43.10
11989;DHT22;6054;50.966;7.094;2023-05-16T08:46:32;20.10;42.30
11989;DHT22;6054;50.966;7.094;2023-05-16T08:49:01;20.20;42.10
11989;DHT22;6054;50.966;7.094;2023-05-16T08:51:33;20.40;42.50
11989;DHT22;6054;50.966;7.094;2023-05-16T08:54:03;20.50;40.80
11989;DHT22;6054;50.966;7.094;2023-05-16T08:56:33;20.50;39.20
11989;DHT22;6054;50.966;7.094;2023-05-16T08:59:00;20.50;38.20
11989;DHT22;6054;50.966;7.094;2023-05-16T09:01:28;20.40;37.60
11989;DHT22;6054;50.966;7.094;2023-05-16T09:03:55;20.30;37.30
11989;DHT22;6054;50.966;7.094;2023-05-16T09:06:23;20.30;37.80
11989;DHT22;6054;50.966;7.094;2023-05-16T09:08:51;20.30;37.90
11989;DHT22;6054;50.966;7.094;2023-05-16T09:11:18;20.30;38.30
11989;DHT22;6054;50.966;7.094;2023-05-16T09:13:46;20.40;38.80
11989;DHT22;6054;50.966;7.094;2023-05-16T09:16:14;20.50;38.50
11989;DHT22;6054;50.966;7.094;2023-05-16T09:18:42;20.60;38.50
11989;DHT22;6054;50.966;7.094;2023-05-16T09:21:10;20.70;38.30
11989;DHT22;6054;50.966;7.094;2023-05-16T09:23:41;20.80;37.80
11989;DHT22;6054;50.966;7.094;2023-05-16T09:26:08;20.90;38.30
11989;DHT22;6054;50.966;7.094;2023-05-16T09:28:36;21.00;36.80
11989;DHT22;6054;50.966;7.094;2023-05-16T09:31:05;21.00;37.60
11989;DHT22;6054;50.966;7.094;2023-05-16T09:33:44;21.10;37.40
11989;DHT22;6054;50.966;7.094;2023-05-16T09:36:11;21.20;36.50
11989;DHT22;6054;50.966;7.094;2023-05-16T09:38:40;21.20;35.10
11989;DHT22;6054;50.966;7.094;2023-05-16T09:41:09;21.20;35.90
11989;DHT22;6054;50.966;7.094;2023-05-16T09:43:38;21.20;35.90
11989;DHT22;6054;50.966;7.094;2023-05-16T09:46:05;21.10;35.40
11989;DHT22;6054;50.966;7.094;2023-05-16T09:48:32;21.00;35.70
11989;DHT22;6054;50.966;7.094;2023-05-16T09:50:59;21.10;35.40
11989;DHT22;6054;50.966;7.094;2023-05-16T09:53:29;21.00;36.40
11989;DHT22;6054;50.966;7.094;2023-05-16T09:56:02;21.10;37.60
11989;DHT22;6054;50.966;7.094;2023-05-16T09:58:30;21.20;36.70
11989;DHT22;6054;50.966;7.094;2023-05-16T10:00:57;21.30;36.80
11989;DHT22;6054;50.966;7.094;2023-05-16T10:03:25;21.40;36.20
11989;DHT22;6054;50.966;7.094;2023-05-16T10:05:52;21.60;36.00
11989;DHT22;6054;50.966;7.094;2023-05-16T10:08:20;21.60;34.50
11989;DHT22;6054;50.966;7.094;2023-05-16T10:10:50;21.70;34.10
11989;DHT22;6054;50.966;7.094;2023-05-16T10:13:20;21.80;35.00
11989;DHT22;6054;50.966;7.094;2023-05-16T10:15:48;21.90;34.00
11989;DHT22;6054;50.966;7.094;2023-05-16T10:18:16;21.90;34.50
11989;DHT22;6054;50.966;7.094;2023-05-16T10:20:45;22.10;36.00
11989;DHT22;6054;50.966;7.094;2023-05-16T10:23:16;22.20;35.50
11989;DHT22;6054;50.966;7.094;2023-05-16T10:25:45;22.20;33.80
11989;DHT22;6054;50.966;7.094;2023-05-16T10:28:13;22.20;34.40
11989;DHT22;6054;50.966;7.094;2023-05-16T10:30:43;22.20;34.50
11989;DHT22;6054;50.966;7.094;2023-05-16T10:33:11;22.10;34.60
11989;DHT22;6054;50.966;7.094;2023-05-16T10:35:39;22.10;35.00
11989;DHT22;6054;50.966;7.094;2023-05-16T10:38:07;22.10;35.70
11989;DHT22;6054;50.966;7.094;2023-05-16T10:40:37;22.10;35.20
11989;DHT22;6054;50.966;7.094;2023-05-16T10:43:06;22.20;35.10
11989;DHT22;6054;50.966;7.094;2023-05-16T10:45:33;22.50;34.60
11989;DHT22;6054;50.966;7.094;2023-05-16T10:48:03;22.30;34.00
11989;DHT22;6054;50.966;7.094;2023-05-16T10:50:35;22.40;33.40
11989;DHT22;6054;50.966;7.094;2023-05-16T10:53:15;22.50;33.60
11989;DHT22;6054;50.966;7.094;2023-05-16T10:58:42;22.50;33.40
11989;DHT22;6054;50.966;7.094;2023-05-16T11:01:20;22.60;32.70
11989;DHT22;6054;50.966;7.094;2023-05-16T11:04:09;22.70;32.90
11989;DHT22;6054;50.966;7.094;2023-05-16T11:06:49;22.30;31.70
11989;DHT22;6054;50.966;7.094;2023-05-16T11:09:19;22.40;32.80
11989;DHT22;6054;50.966;7.094;2023-05-16T11:11:57;22.50;33.40
11989;DHT22;6054;50.966;7.094;2023-05-16T11:14:25;22.60;32.90
11989;DHT22;6054;50.966;7.094;2023-05-16T11:16:59;22.60;32.00
11989;DHT22;6054;50.966;7.094;2023-05-16T11:19:33;22.70;32.30
11989;DHT22;6054;50.966;7.094;2023-05-16T11:22:07;22.70;32.20
11989;DHT22;6054;50.966;7.094;2023-05-16T11:24:35;22.80;32.00
11989;DHT22;6054;50.966;7.094;2023-05-16T11:27:03;22.90;31.40
11989;DHT22;6054;50.966;7.094;2023-05-16T11:29:30;23.00;31.10
11989;DHT22;6054;50.966;7.094;2023-05-16T11:31:58;23.00;31.10
11989;DHT22;6054;50.966;7.094;2023-05-16T11:34:25;23.00;31.20
11989;DHT22;6054;50.966;7.094;2023-05-16T11:36:53;23.00;31.70
11989;DHT22;6054;50.966;7.094;2023-05-16T11:39:20;23.20;30.70
11989;DHT22;6054;50.966;7.094;2023-05-16T11:41:48;23.20;31.00
11989;DHT22;6054;50.966;7.094;2023-05-16T11:44:15;23.20;31.30
11989;DHT22;6054;50.966;7.094;2023-05-16T11:46:42;23.20;31.00
11989;DHT22;6054;50.966;7.094;2023-05-16T11:49:09;23.10;31.30
11989;DHT22;6054;50.966;7.094;2023-05-16T11:51:37;23.00;31.20
11989;DHT22;6054;50.966;7.094;2023-05-16T11:54:06;22.90;30.60
11989;DHT22;6054;50.966;7.094;2023-05-16T11:56:34;22.90;30.60
11989;DHT22;6054;50.966;7.094;2023-05-16T11:59:01;22.80;31.90
11989;DHT22;6054;50.966;7.094;2023-05-16T12:01:32;22.80;32.00
11989;DHT22;6054;50.966;7.094;2023-05-16T12:03:59;22.80;32.50
11989;DHT22;6054;50.966;7.094;2023-05-16T12:06:26;22.80;32.60
11989;DHT22;6054;50.966;7.094;2023-05-16T12:08:55;22.90;32.90
11989;DHT22;6054;50.966;7.094;2023-05-16T12:11:23;22.90;32.90
11989;DHT22;6054;50.966;7.094;2023-05-16T12:13:50;22.90;32.40
11989;DHT22;6054;50.966;7.094;2023-05-16T12:16:18;22.90;32.70
11989;DHT22;6054;50.966;7.094;2023-05-16T12:18:45;22.90;32.90
11989;DHT22;6054;50.966;7.094;2023-05-16T12:21:12;23.10;33.20
11989;DHT22;6054;50.966;7.094;2023-05-16T12:23:41;23.10;33.20
11989;DHT22;6054;50.966;7.094;2023-05-16T12:26:08;23.10;33.30
11989;DHT22;6054;50.966;7.094;2023-05-16T12:28:36;23.20;32.90
11989;DHT22;6054;50.966;7.094;2023-05-16T12:31:10;23.20;33.30
11989;DHT22;6054;50.966;7.094;2023-05-16T12:33:38;23.20;33.80
11989;DHT22;6054;50.966;7.094;2023-05-16T12:36:11;23.30;33.40
11989;DHT22;6054;50.966;7.094;2023-05-16T12:38:38;23.40;33.60
11989;DHT22;6054;50.966;7.094;2023-05-16T12:41:05;23.50;33.60
11989;DHT22;6054;50.966;7.094;2023-05-16T12:43:32;23.50;33.70
11989;DHT22;6054;50.966;7.094;2023-05-16T12:46:00;23.70;33.00
11989;DHT22;6054;50.966;7.094;2023-05-16T12:48:31;23.70;32.60
11989;DHT22;6054;50.966;7.094;2023-05-16T12:51:09;23.70;32.40
11989;DHT22;6054;50.966;7.094;2023-05-16T12:53:40;23.80;32.20
11989;DHT22;6054;50.966;7.094;2023-05-16T12:56:07;23.60;32.20
11989;DHT22;6054;50.966;7.094;2023-05-16T12:58:34;23.60;31.30
11989;DHT22;6054;50.966;7.094;2023-05-16T13:01:03;23.50;31.60
11989;DHT22;6054;50.966;7.094;2023-05-16T13:03:30;23.50;31.90
11989;DHT22;6054;50.966;7.094;2023-05-16T13:05:57;23.50;32.20
11989;DHT22;6054;50.966;7.094;2023-05-16T13:08:24;23.30;33.10
11989;DHT22;6054;50.966;7.094;2023-05-16T13:10:51;23.50;34.30
11989;DHT22;6054;50.966;7.094;2023-05-16T13:13:17;23.20;34.10
11989;DHT22;6054;50.966;7.094;2023-05-16T13:15:44;23.00;34.30
11989;DHT22;6054;50.966;7.094;2023-05-16T13:18:13;22.90;34.40
11989;DHT22;6054;50.966;7.094;2023-05-16T13:20:40;23.10;35.30
11989;DHT22;6054;50.966;7.094;2023-05-16T13:23:08;22.90;34.70
11989;DHT22;6054;50.966;7.094;2023-05-16T13:25:34;22.90;34.40
11989;DHT22;6054;50.966;7.094;2023-05-16T13:28:01;22.90;34.00
11989;DHT22;6054;50.966;7.094;2023-05-16T13:30:28;22.90;33.80
11989;DHT22;6054;50.966;7.094;2023-05-16T13:32:55;22.90;33.60
11989;DHT22;6054;50.966;7.094;2023-05-16T13:35:24;22.90;33.20
11989;DHT22;6054;50.966;7.094;2023-05-16T13:37:51;22.90;32.40
11989;DHT22;6054;50.966;7.094;2023-05-16T13:40:17;23.00;32.20
11989;DHT22;6054;50.966;7.094;2023-05-16T13:42:44;23.10;32.70
11989;DHT22;6054;50.966;7.094;2023-05-16T13:45:11;23.40;31.30
11989;DHT22;6054;50.966;7.094;2023-05-16T13:47:38;23.20;31.10
11989;DHT22;6054;50.966;7.094;2023-05-16T13:50:06;23.40;30.40
11989;DHT22;6054;50.966;7.094;2023-05-16T13:52:36;23.50;30.10
11989;DHT22;6054;50.966;7.094;2023-05-16T13:55:03;23.50;29.90
11989;DHT22;6054;50.966;7.094;2023-05-16T13:57:30;23.50;29.70
11989;DHT22;6054;50.966;7.094;2023-05-16T13:59:57;23.50;29.80
11989;DHT22;6054;50.966;7.094;2023-05-16T14:02:24;23.50;29.90
11989;DHT22;6054;50.966;7.094;2023-05-16T14:04:51;23.60;30.90
11989;DHT22;6054;50.966;7.094;2023-05-16T14:07:18;23.60;30.40
11989;DHT22;6054;50.966;7.094;2023-05-16T14:09:46;23.60;30.30
11989;DHT22;6054;50.966;7.094;2023-05-16T14:12:13;23.70;28.90
11989;DHT22;6054;50.966;7.094;2023-05-16T14:14:39;23.70;28.40
11989;DHT22;6054;50.966;7.094;2023-05-16T14:17:06;23.70;27.80
11989;DHT22;6054;50.966;7.094;2023-05-16T14:19:33;23.70;27.70
11989;DHT22;6054;50.966;7.094;2023-05-16T14:22:00;23.70;27.50
11989;DHT22;6054;50.966;7.094;2023-05-16T14:24:27;23.70;27.60
11989;DHT22;6054;50.966;7.094;2023-05-16T14:26:55;23.80;27.60
11989;DHT22;6054;50.966;7.094;2023-05-16T14:29:22;23.90;27.60
11989;DHT22;6054;50.966;7.094;2023-05-16T14:34:17;23.90;27.60
11989;DHT22;6054;50.966;7.094;2023-05-16T14:36:44;23.90;27.80
11989;DHT22;6054;50.966;7.094;2023-05-16T14:39:11;23.90;27.50
11989;DHT22;6054;50.966;7.094;2023-05-16T14:41:38;23.90;27.90
11989;DHT22;6054;50.966;7.094;2023-05-16T14:44:06;24.00;28.10
11989;DHT22;6054;50.966;7.094;2023-05-16T14:46:33;24.00;27.70
11989;DHT22;6054;50.966;7.094;2023-05-16T14:48:59;24.00;28.00
11989;DHT22;6054;50.966;7.094;2023-05-16T14:51:26;24.00;27.10
11989;DHT22;6054;50.966;7.094;2023-05-16T14:53:53;23.90;27.80
11989;DHT22;6054;50.966;7.094;2023-05-16T14:56:20;24.10;27.90
11989;DHT22;6054;50.966;7.094;2023-05-16T14:58:47;23.80;28.20
11989;DHT22;6054;50.966;7.094;2023-05-16T15:01:15;23.80;28.20
11989;DHT22;6054;50.966;7.094;2023-05-16T15:03:42;23.80;28.00
11989;DHT22;6054;50.966;7.094;2023-05-16T15:06:09;23.80;28.40
11989;DHT22;6054;50.966;7.094;2023-05-16T15:08:36;23.90;28.80
11989;DHT22;6054;50.966;7.094;2023-05-16T15:11:03;23.90;28.90
11989;DHT22;6054;50.966;7.094;2023-05-16T15:13:30;23.80;29.10
11989;DHT22;6054;50.966;7.094;2023-05-16T15:15:57;23.70;28.80
11989;DHT22;6054;50.966;7.094;2023-05-16T15:18:25;23.70;28.80
11989;DHT22;6054;50.966;7.094;2023-05-16T15:20:52;23.90;29.00
11989;DHT22;6054;50.966;7.094;2023-05-16T15:23:18;23.90;29.00
11989;DHT22;6054;50.966;7.094;2023-05-16T15:25:45;23.60;28.80
11989;DHT22;6054;50.966;7.094;2023-05-16T15:28:12;23.60;28.70
11989;DHT22;6054;50.966;7.094;2023-05-16T15:30:39;23.60;29.10
11989;DHT22;6054;50.966;7.094;2023-05-16T15:33:06;23.50;29.30
11989;DHT22;6054;50.966;7.094;2023-05-16T15:35:34;23.40;29.40
11989;DHT22;6054;50.966;7.094;2023-05-16T15:38:01;23.50;30.30
11989;DHT22;6054;50.966;7.094;2023-05-16T15:40:27;23.50;29.50
11989;DHT22;6054;50.966;7.094;2023-05-16T15:42:54;23.40;29.10
11989;DHT22;6054;50.966;7.094;2023-05-16T15:45:21;23.30;29.00
11989;DHT22;6054;50.966;7.094;2023-05-16T15:47:48;23.30;29.00
11989;DHT22;6054;50.966;7.094;2023-05-16T15:50:14;23.30;29.70
11989;DHT22;6054;50.966;7.094;2023-05-16T15:52:45;23.50;29.90
11989;DHT22;6054;50.966;7.094;2023-05-16T15:55:12;23.60;30.00